Fredericksburg, Pennsylvania
Current Conditions -  °F | °C
As of 10:58 PM on Sunday 21 Dec 2014 (Local Time) from KMUI Reporting Station
Clear Clear  
Wind Chill: 20°   Ceiling: Unl
Heat Index: 20°   Visibility: 10mi
Dew Point: 18°   Wind: 0mph
Humidity: 91%   Direction: NA
Pressure: 30.34"   Gusts: NA
Location:  40.45°N, 76.43°W
Report Text: KMUI 220358Z AUTO 00000KT 10SM CLR M06/M08 A3034 RMK AO2 SLP284 T10641076
Loading
Personal Weather Stations






























Interactive Weather Map New forecast layout! Learn more

10-Day Weather Forecast

Advertisements
Track Severe Weather on mobile